sensor_id;sensor_type;location;lat;lon;timestamp;P1;durP1;ratioP1;P2;durP2;ratioP2
74616;SDS011;63123;50.906;4.198;2023-02-26T00:02:06;3.60;;;2.17;;
74616;SDS011;63123;50.906;4.198;2023-02-26T00:04:33;3.45;;;2.05;;
74616;SDS011;63123;50.906;4.198;2023-02-26T00:06:59;2.78;;;2.55;;
74616;SDS011;63123;50.906;4.198;2023-02-26T00:09:25;3.50;;;2.80;;
74616;SDS011;63123;50.906;4.198;2023-02-26T00:11:51;2.67;;;2.38;;
74616;SDS011;63123;50.906;4.198;2023-02-26T00:14:16;3.03;;;2.38;;
74616;SDS011;63123;50.906;4.198;2023-02-26T00:16:42;3.28;;;2.30;;
74616;SDS011;63123;50.906;4.198;2023-02-26T00:19:13;2.70;;;2.13;;
74616;SDS011;63123;50.906;4.198;2023-02-26T00:21:39;3.50;;;2.60;;
74616;SDS011;63123;50.906;4.198;2023-02-26T00:24:05;2.97;;;2.53;;
74616;SDS011;63123;50.906;4.198;2023-02-26T00:26:31;4.45;;;2.20;;
74616;SDS011;63123;50.906;4.198;2023-02-26T00:28:58;3.20;;;2.50;;
74616;SDS011;63123;50.906;4.198;2023-02-26T00:31:24;3.97;;;2.55;;
74616;SDS011;63123;50.906;4.198;2023-02-26T00:33:51;3.25;;;2.58;;
74616;SDS011;63123;50.906;4.198;2023-02-26T00:36:28;3.67;;;2.80;;
74616;SDS011;63123;50.906;4.198;2023-02-26T00:42:01;3.55;;;2.83;;
74616;SDS011;63123;50.906;4.198;2023-02-26T00:44:27;3.25;;;2.28;;
74616;SDS011;63123;50.906;4.198;2023-02-26T00:47:41;3.55;;;2.63;;
74616;SDS011;63123;50.906;4.198;2023-02-26T00:49:55;4.25;;;2.88;;
74616;SDS011;63123;50.906;4.198;2023-02-26T00:52:27;3.25;;;2.45;;
74616;SDS011;63123;50.906;4.198;2023-02-26T00:54:59;3.95;;;2.72;;
74616;SDS011;63123;50.906;4.198;2023-02-26T00:57:25;2.88;;;2.10;;
74616;SDS011;63123;50.906;4.198;2023-02-26T00:59:50;4.05;;;2.45;;
74616;SDS011;63123;50.906;4.198;2023-02-26T01:02:16;3.38;;;2.47;;
74616;SDS011;63123;50.906;4.198;2023-02-26T01:04:41;3.20;;;2.60;;
74616;SDS011;63123;50.906;4.198;2023-02-26T01:07:07;3.30;;;2.97;;
74616;SDS011;63123;50.906;4.198;2023-02-26T01:09:34;2.90;;;2.47;;
74616;SDS011;63123;50.906;4.198;2023-02-26T01:12:07;4.88;;;2.53;;
74616;SDS011;63123;50.906;4.198;2023-02-26T01:14:35;3.28;;;2.60;;
74616;SDS011;63123;50.906;4.198;2023-02-26T01:17:10;4.03;;;3.08;;
74616;SDS011;63123;50.906;4.198;2023-02-26T01:24:47;4.15;;;2.75;;
74616;SDS011;63123;50.906;4.198;2023-02-26T01:27:17;2.80;;;2.15;;
74616;SDS011;63123;50.906;4.198;2023-02-26T01:29:42;4.10;;;2.60;;
74616;SDS011;63123;50.906;4.198;2023-02-26T01:32:15;2.22;;;2.03;;
74616;SDS011;63123;50.906;4.198;2023-02-26T01:34:56;3.22;;;2.20;;
74616;SDS011;63123;50.906;4.198;2023-02-26T01:43:28;2.25;;;1.90;;
74616;SDS011;63123;50.906;4.198;2023-02-26T01:49:01;2.50;;;2.10;;
74616;SDS011;63123;50.906;4.198;2023-02-26T01:51:42;3.35;;;2.42;;
74616;SDS011;63123;50.906;4.198;2023-02-26T01:54:11;3.50;;;2.38;;
74616;SDS011;63123;50.906;4.198;2023-02-26T01:56:38;3.15;;;2.17;;
74616;SDS011;63123;50.906;4.198;2023-02-26T01:59:05;3.22;;;2.53;;
74616;SDS011;63123;50.906;4.198;2023-02-26T02:01:36;3.13;;;2.10;;
74616;SDS011;63123;50.906;4.198;2023-02-26T02:04:04;2.92;;;1.90;;
74616;SDS011;63123;50.906;4.198;2023-02-26T02:06:33;4.28;;;2.28;;
74616;SDS011;63123;50.906;4.198;2023-02-26T02:09:00;2.30;;;2.10;;
74616;SDS011;63123;50.906;4.198;2023-02-26T02:11:28;3.08;;;2.03;;
74616;SDS011;63123;50.906;4.198;2023-02-26T02:21:49;2.53;;;2.05;;
74616;SDS011;63123;50.906;4.198;2023-02-26T02:26:57;2.60;;;2.20;;
74616;SDS011;63123;50.906;4.198;2023-02-26T02:29:46;3.30;;;2.22;;
74616;SDS011;63123;50.906;4.198;2023-02-26T02:35:35;2.53;;;1.77;;
74616;SDS011;63123;50.906;4.198;2023-02-26T02:38:10;2.70;;;1.80;;
74616;SDS011;63123;50.906;4.198;2023-02-26T02:40:44;2.83;;;2.58;;
74616;SDS011;63123;50.906;4.198;2023-02-26T02:43:17;2.95;;;2.15;;
74616;SDS011;63123;50.906;4.198;2023-02-26T02:48:38;2.72;;;1.98;;
74616;SDS011;63123;50.906;4.198;2023-02-26T02:51:12;3.55;;;2.08;;
74616;SDS011;63123;50.906;4.198;2023-02-26T02:53:54;3.72;;;2.13;;
74616;SDS011;63123;50.906;4.198;2023-02-26T02:59:19;2.58;;;2.38;;
74616;SDS011;63123;50.906;4.198;2023-02-26T03:01:49;2.83;;;1.92;;
74616;SDS011;63123;50.906;4.198;2023-02-26T03:04:21;3.70;;;2.22;;
74616;SDS011;63123;50.906;4.198;2023-02-26T03:06:46;2.97;;;1.85;;
74616;SDS011;63123;50.906;4.198;2023-02-26T03:09:13;2.97;;;2.10;;
74616;SDS011;63123;50.906;4.198;2023-02-26T03:11:40;2.35;;;1.80;;
74616;SDS011;63123;50.906;4.198;2023-02-26T03:14:06;2.70;;;1.80;;
74616;SDS011;63123;50.906;4.198;2023-02-26T03:19:28;3.25;;;2.00;;
74616;SDS011;63123;50.906;4.198;2023-02-26T03:24:57;2.75;;;1.73;;
74616;SDS011;63123;50.906;4.198;2023-02-26T03:27:28;2.50;;;1.67;;
74616;SDS011;63123;50.906;4.198;2023-02-26T03:35:48;1.40;;;1.30;;
74616;SDS011;63123;50.906;4.198;2023-02-26T03:38:36;1.75;;;1.50;;
74616;SDS011;63123;50.906;4.198;2023-02-26T03:41:19;2.72;;;1.90;;
74616;SDS011;63123;50.906;4.198;2023-02-26T03:43:53;2.08;;;1.85;;
74616;SDS011;63123;50.906;4.198;2023-02-26T03:46:25;2.15;;;1.55;;
74616;SDS011;63123;50.906;4.198;2023-02-26T03:48:54;1.85;;;1.40;;
74616;SDS011;63123;50.906;4.198;2023-02-26T03:51:24;2.08;;;1.45;;
74616;SDS011;63123;50.906;4.198;2023-02-26T03:53:53;2.95;;;1.50;;
74616;SDS011;63123;50.906;4.198;2023-02-26T03:56:38;1.52;;;1.40;;
74616;SDS011;63123;50.906;4.198;2023-02-26T03:59:07;1.98;;;1.67;;
74616;SDS011;63123;50.906;4.198;2023-02-26T04:01:35;1.90;;;1.40;;
74616;SDS011;63123;50.906;4.198;2023-02-26T04:04:27;2.33;;;1.50;;
74616;SDS011;63123;50.906;4.198;2023-02-26T04:07:14;2.05;;;1.55;;
74616;SDS011;63123;50.906;4.198;2023-02-26T04:09:45;2.30;;;1.60;;
74616;SDS011;63123;50.906;4.198;2023-02-26T04:12:12;2.45;;;1.63;;
74616;SDS011;63123;50.906;4.198;2023-02-26T04:14:38;1.85;;;1.33;;
74616;SDS011;63123;50.906;4.198;2023-02-26T04:17:04;2.22;;;1.70;;
74616;SDS011;63123;50.906;4.198;2023-02-26T04:19:30;1.83;;;1.67;;
74616;SDS011;63123;50.906;4.198;2023-02-26T04:21:56;2.25;;;1.30;;
74616;SDS011;63123;50.906;4.198;2023-02-26T04:24:21;1.83;;;1.10;;
74616;SDS011;63123;50.906;4.198;2023-02-26T04:26:47;1.73;;;1.27;;
74616;SDS011;63123;50.906;4.198;2023-02-26T04:29:12;1.52;;;1.27;;
74616;SDS011;63123;50.906;4.198;2023-02-26T04:31:38;1.55;;;1.30;;
74616;SDS011;63123;50.906;4.198;2023-02-26T04:34:04;1.95;;;1.20;;
74616;SDS011;63123;50.906;4.198;2023-02-26T04:36:29;2.65;;;1.52;;
74616;SDS011;63123;50.906;4.198;2023-02-26T04:38:55;1.80;;;1.30;;
74616;SDS011;63123;50.906;4.198;2023-02-26T04:41:21;2.40;;;1.60;;
74616;SDS011;63123;50.906;4.198;2023-02-26T04:43:46;1.45;;;1.30;;
74616;SDS011;63123;50.906;4.198;2023-02-26T04:46:12;1.50;;;1.30;;
74616;SDS011;63123;50.906;4.198;2023-02-26T04:48:37;1.73;;;1.30;;
74616;SDS011;63123;50.906;4.198;2023-02-26T04:51:03;2.35;;;1.67;;
74616;SDS011;63123;50.906;4.198;2023-02-26T04:53:29;1.42;;;1.08;;
74616;SDS011;63123;50.906;4.198;2023-02-26T04:55:55;1.73;;;1.55;;
74616;SDS011;63123;50.906;4.198;2023-02-26T04:58:20;1.60;;;1.38;;
74616;SDS011;63123;50.906;4.198;2023-02-26T05:00:49;1.98;;;1.35;;
74616;SDS011;63123;50.906;4.198;2023-02-26T05:03:16;2.63;;;1.52;;
74616;SDS011;63123;50.906;4.198;2023-02-26T05:05:42;1.92;;;1.25;;
74616;SDS011;63123;50.906;4.198;2023-02-26T05:08:08;2.10;;;1.30;;
74616;SDS011;63123;50.906;4.198;2023-02-26T05:10:34;2.28;;;1.60;;
74616;SDS011;63123;50.906;4.198;2023-02-26T05:12:59;2.30;;;1.45;;
74616;SDS011;63123;50.906;4.198;2023-02-26T05:15:25;1.85;;;1.42;;
74616;SDS011;63123;50.906;4.198;2023-02-26T05:17:50;1.55;;;1.40;;
74616;SDS011;63123;50.906;4.198;2023-02-26T05:20:16;2.22;;;1.60;;
74616;SDS011;63123;50.906;4.198;2023-02-26T05:22:42;1.52;;;1.25;;
74616;SDS011;63123;50.906;4.198;2023-02-26T05:25:07;1.42;;;1.13;;
74616;SDS011;63123;50.906;4.198;2023-02-26T05:27:34;1.92;;;1.50;;
74616;SDS011;63123;50.906;4.198;2023-02-26T05:30:00;2.42;;;1.20;;
74616;SDS011;63123;50.906;4.198;2023-02-26T05:32:26;2.50;;;1.48;;
74616;SDS011;63123;50.906;4.198;2023-02-26T05:34:51;2.47;;;1.30;;
74616;SDS011;63123;50.906;4.198;2023-02-26T05:37:17;2.05;;;1.30;;
74616;SDS011;63123;50.906;4.198;2023-02-26T05:39:42;1.67;;;1.48;;
74616;SDS011;63123;50.906;4.198;2023-02-26T05:42:08;2.40;;;1.45;;
74616;SDS011;63123;50.906;4.198;2023-02-26T05:44:33;1.50;;;1.15;;
74616;SDS011;63123;50.906;4.198;2023-02-26T05:47:00;1.75;;;1.20;;
74616;SDS011;63123;50.906;4.198;2023-02-26T05:49:26;1.67;;;1.35;;
74616;SDS011;63123;50.906;4.198;2023-02-26T05:51:52;2.38;;;1.50;;
74616;SDS011;63123;50.906;4.198;2023-02-26T05:54:17;1.50;;;1.08;;
74616;SDS011;63123;50.906;4.198;2023-02-26T05:56:43;2.03;;;1.63;;
74616;SDS011;63123;50.906;4.198;2023-02-26T05:59:09;1.77;;;1.45;;
74616;SDS011;63123;50.906;4.198;2023-02-26T06:01:34;1.35;;;1.20;;
74616;SDS011;63123;50.906;4.198;2023-02-26T06:04:04;1.67;;;1.38;;
74616;SDS011;63123;50.906;4.198;2023-02-26T06:06:30;1.90;;;1.08;;
74616;SDS011;63123;50.906;4.198;2023-02-26T06:08:57;2.45;;;1.58;;
74616;SDS011;63123;50.906;4.198;2023-02-26T06:11:24;1.23;;;0.90;;
74616;SDS011;63123;50.906;4.198;2023-02-26T06:13:49;1.48;;;1.23;;
74616;SDS011;63123;50.906;4.198;2023-02-26T06:16:15;1.90;;;1.23;;
74616;SDS011;63123;50.906;4.198;2023-02-26T06:18:40;2.13;;;1.30;;
74616;SDS011;63123;50.906;4.198;2023-02-26T06:21:06;1.60;;;1.10;;
74616;SDS011;63123;50.906;4.198;2023-02-26T06:23:32;1.95;;;1.38;;
74616;SDS011;63123;50.906;4.198;2023-02-26T06:25:58;2.45;;;1.33;;
74616;SDS011;63123;50.906;4.198;2023-02-26T06:28:24;1.25;;;1.02;;
74616;SDS011;63123;50.906;4.198;2023-02-26T06:30:51;1.17;;;1.00;;
74616;SDS011;63123;50.906;4.198;2023-02-26T06:33:17;1.23;;;1.00;;
74616;SDS011;63123;50.906;4.198;2023-02-26T06:35:42;1.17;;;1.00;;
74616;SDS011;63123;50.906;4.198;2023-02-26T06:38:08;1.98;;;1.20;;
74616;SDS011;63123;50.906;4.198;2023-02-26T06:40:34;1.83;;;1.17;;
74616;SDS011;63123;50.906;4.198;2023-02-26T06:43:01;1.70;;;1.15;;
74616;SDS011;63123;50.906;4.198;2023-02-26T06:45:26;1.85;;;1.08;;
74616;SDS011;63123;50.906;4.198;2023-02-26T06:47:52;1.85;;;1.23;;
74616;SDS011;63123;50.906;4.198;2023-02-26T06:50:17;1.70;;;1.38;;
74616;SDS011;63123;50.906;4.198;2023-02-26T06:52:43;1.73;;;1.10;;
74616;SDS011;63123;50.906;4.198;2023-02-26T06:55:09;1.30;;;1.20;;
74616;SDS011;63123;50.906;4.198;2023-02-26T06:57:35;1.50;;;1.00;;
74616;SDS011;63123;50.906;4.198;2023-02-26T07:00:00;1.67;;;1.05;;
74616;SDS011;63123;50.906;4.198;2023-02-26T07:02:28;2.15;;;1.48;;
74616;SDS011;63123;50.906;4.198;2023-02-26T07:04:53;1.63;;;1.08;;
74616;SDS011;63123;50.906;4.198;2023-02-26T07:07:19;2.10;;;1.33;;
74616;SDS011;63123;50.906;4.198;2023-02-26T07:09:45;1.33;;;1.08;;
74616;SDS011;63123;50.906;4.198;2023-02-26T07:12:10;1.25;;;0.90;;
74616;SDS011;63123;50.906;4.198;2023-02-26T07:14:36;2.00;;;1.40;;
74616;SDS011;63123;50.906;4.198;2023-02-26T07:17:01;1.20;;;1.00;;
74616;SDS011;63123;50.906;4.198;2023-02-26T07:19:27;1.85;;;1.25;;
74616;SDS011;63123;50.906;4.198;2023-02-26T07:21:53;1.60;;;1.10;;
74616;SDS011;63123;50.906;4.198;2023-02-26T07:24:19;1.58;;;1.00;;
74616;SDS011;63123;50.906;4.198;2023-02-26T07:26:45;1.45;;;1.02;;
74616;SDS011;63123;50.906;4.198;2023-02-26T07:29:11;1.70;;;1.00;;
74616;SDS011;63123;50.906;4.198;2023-02-26T07:31:36;1.25;;;1.08;;
74616;SDS011;63123;50.906;4.198;2023-02-26T07:34:02;1.20;;;0.93;;
74616;SDS011;63123;50.906;4.198;2023-02-26T07:36:28;1.30;;;1.10;;
74616;SDS011;63123;50.906;4.198;2023-02-26T07:38:53;1.75;;;1.10;;
74616;SDS011;63123;50.906;4.198;2023-02-26T07:41:19;1.70;;;0.90;;
74616;SDS011;63123;50.906;4.198;2023-02-26T07:43:46;1.15;;;0.90;;
74616;SDS011;63123;50.906;4.198;2023-02-26T07:46:11;1.65;;;1.00;;
74616;SDS011;63123;50.906;4.198;2023-02-26T07:48:37;1.35;;;0.95;;
74616;SDS011;63123;50.906;4.198;2023-02-26T07:51:03;1.70;;;1.00;;
74616;SDS011;63123;50.906;4.198;2023-02-26T07:53:29;2.00;;;1.58;;
74616;SDS011;63123;50.906;4.198;2023-02-26T07:55:54;2.05;;;1.00;;
74616;SDS011;63123;50.906;4.198;2023-02-26T07:58:20;1.45;;;0.90;;
74616;SDS011;63123;50.906;4.198;2023-02-26T08:00:46;2.38;;;1.20;;
74616;SDS011;63123;50.906;4.198;2023-02-26T08:03:11;1.42;;;0.80;;
74616;SDS011;63123;50.906;4.198;2023-02-26T08:05:37;1.83;;;0.90;;
74616;SDS011;63123;50.906;4.198;2023-02-26T08:08:03;1.27;;;1.02;;
74616;SDS011;63123;50.906;4.198;2023-02-26T08:10:28;1.30;;;0.88;;
74616;SDS011;63123;50.906;4.198;2023-02-26T08:12:54;1.63;;;0.90;;
74616;SDS011;63123;50.906;4.198;2023-02-26T08:15:20;1.13;;;0.80;;
74616;SDS011;63123;50.906;4.198;2023-02-26T08:17:46;1.50;;;1.30;;
74616;SDS011;63123;50.906;4.198;2023-02-26T08:20:11;1.23;;;0.85;;
74616;SDS011;63123;50.906;4.198;2023-02-26T08:22:39;1.50;;;0.98;;
74616;SDS011;63123;50.906;4.198;2023-02-26T08:25:05;1.17;;;1.05;;
74616;SDS011;63123;50.906;4.198;2023-02-26T08:27:31;2.20;;;1.20;;
74616;SDS011;63123;50.906;4.198;2023-02-26T08:29:57;1.40;;;1.00;;
74616;SDS011;63123;50.906;4.198;2023-02-26T08:32:23;1.42;;;0.95;;
74616;SDS011;63123;50.906;4.198;2023-02-26T08:34:50;1.30;;;0.82;;
74616;SDS011;63123;50.906;4.198;2023-02-26T08:37:16;1.70;;;1.17;;
74616;SDS011;63123;50.906;4.198;2023-02-26T08:39:42;1.40;;;0.95;;
74616;SDS011;63123;50.906;4.198;2023-02-26T08:42:08;0.95;;;0.80;;
74616;SDS011;63123;50.906;4.198;2023-02-26T08:44:35;1.00;;;0.80;;
74616;SDS011;63123;50.906;4.198;2023-02-26T08:47:00;1.35;;;1.02;;
74616;SDS011;63123;50.906;4.198;2023-02-26T08:49:27;2.10;;;0.95;;
74616;SDS011;63123;50.906;4.198;2023-02-26T08:51:53;1.20;;;1.02;;
74616;SDS011;63123;50.906;4.198;2023-02-26T08:54:18;2.22;;;1.30;;
74616;SDS011;63123;50.906;4.198;2023-02-26T08:56:44;1.02;;;0.80;;
74616;SDS011;63123;50.906;4.198;2023-02-26T08:59:09;1.50;;;1.08;;
74616;SDS011;63123;50.906;4.198;2023-02-26T09:01:37;1.65;;;1.00;;
74616;SDS011;63123;50.906;4.198;2023-02-26T09:04:02;1.83;;;1.00;;
74616;SDS011;63123;50.906;4.198;2023-02-26T09:06:28;1.25;;;0.90;;
74616;SDS011;63123;50.906;4.198;2023-02-26T09:08:54;1.33;;;0.70;;
74616;SDS011;63123;50.906;4.198;2023-02-26T09:11:19;2.05;;;0.90;;
74616;SDS011;63123;50.906;4.198;2023-02-26T09:13:45;1.00;;;0.80;;
74616;SDS011;63123;50.906;4.198;2023-02-26T09:16:10;0.93;;;0.68;;
74616;SDS011;63123;50.906;4.198;2023-02-26T09:18:36;2.08;;;1.00;;
74616;SDS011;63123;50.906;4.198;2023-02-26T09:21:01;0.90;;;0.80;;
74616;SDS011;63123;50.906;4.198;2023-02-26T09:23:27;1.30;;;0.90;;
74616;SDS011;63123;50.906;4.198;2023-02-26T09:25:53;1.63;;;0.88;;
74616;SDS011;63123;50.906;4.198;2023-02-26T09:28:20;1.60;;;0.90;;
74616;SDS011;63123;50.906;4.198;2023-02-26T09:30:49;1.45;;;0.90;;
74616;SDS011;63123;50.906;4.198;2023-02-26T09:33:16;1.38;;;1.05;;
74616;SDS011;63123;50.906;4.198;2023-02-26T09:35:42;1.60;;;0.90;;
74616;SDS011;63123;50.906;4.198;2023-02-26T09:38:08;1.60;;;0.80;;
74616;SDS011;63123;50.906;4.198;2023-02-26T09:45:52;1.63;;;0.98;;
74616;SDS011;63123;50.906;4.198;2023-02-26T09:48:20;2.13;;;0.77;;
74616;SDS011;63123;50.906;4.198;2023-02-26T09:50:52;0.88;;;0.77;;
74616;SDS011;63123;50.906;4.198;2023-02-26T09:53:21;3.38;;;0.80;;
74616;SDS011;63123;50.906;4.198;2023-02-26T09:55:57;0.77;;;0.70;;
74616;SDS011;63123;50.906;4.198;2023-02-26T09:58:31;1.02;;;0.77;;
74616;SDS011;63123;50.906;4.198;2023-02-26T10:01:03;1.80;;;0.85;;
74616;SDS011;63123;50.906;4.198;2023-02-26T10:03:53;1.92;;;1.00;;
74616;SDS011;63123;50.906;4.198;2023-02-26T10:12:06;1.23;;;0.80;;
74616;SDS011;63123;50.906;4.198;2023-02-26T10:14:57;2.08;;;1.00;;
74616;SDS011;63123;50.906;4.198;2023-02-26T10:17:33;1.30;;;1.00;;
74616;SDS011;63123;50.906;4.198;2023-02-26T10:20:20;1.88;;;0.80;;
74616;SDS011;63123;50.906;4.198;2023-02-26T10:25:40;1.77;;;1.00;;
74616;SDS011;63123;50.906;4.198;2023-02-26T10:31:20;1.70;;;0.82;;
74616;SDS011;63123;50.906;4.198;2023-02-26T10:36:38;1.13;;;0.88;;
74616;SDS011;63123;50.906;4.198;2023-02-26T10:39:33;2.83;;;0.93;;
74616;SDS011;63123;50.906;4.198;2023-02-26T10:42:04;2.30;;;0.80;;
74616;SDS011;63123;50.906;4.198;2023-02-26T10:44:43;1.98;;;1.00;;
74616;SDS011;63123;50.906;4.198;2023-02-26T10:50:00;2.00;;;0.60;;
74616;SDS011;63123;50.906;4.198;2023-02-26T10:52:32;2.30;;;1.00;;
74616;SDS011;63123;50.906;4.198;2023-02-26T10:57:54;1.10;;;0.80;;
74616;SDS011;63123;50.906;4.198;2023-02-26T11:00:25;1.25;;;0.90;;
74616;SDS011;63123;50.906;4.198;2023-02-26T11:02:52;1.10;;;0.70;;
74616;SDS011;63123;50.906;4.198;2023-02-26T11:05:21;2.10;;;1.00;;
74616;SDS011;63123;50.906;4.198;2023-02-26T11:07:56;1.67;;;0.90;;
74616;SDS011;63123;50.906;4.198;2023-02-26T11:10:32;1.85;;;0.80;;
74616;SDS011;63123;50.906;4.198;2023-02-26T11:13:06;1.60;;;0.70;;
74616;SDS011;63123;50.906;4.198;2023-02-26T11:15:32;0.93;;;0.80;;
74616;SDS011;63123;50.906;4.198;2023-02-26T11:17:58;2.00;;;1.10;;
74616;SDS011;63123;50.906;4.198;2023-02-26T11:23:06;1.20;;;0.80;;
74616;SDS011;63123;50.906;4.198;2023-02-26T11:25:37;0.65;;;0.60;;
74616;SDS011;63123;50.906;4.198;2023-02-26T11:28:05;2.13;;;0.80;;
74616;SDS011;63123;50.906;4.198;2023-02-26T11:30:35;1.40;;;1.10;;
74616;SDS011;63123;50.906;4.198;2023-02-26T11:33:03;1.40;;;0.85;;
74616;SDS011;63123;50.906;4.198;2023-02-26T11:35:40;1.10;;;0.80;;
74616;SDS011;63123;50.906;4.198;2023-02-26T11:38:05;2.65;;;0.90;;
74616;SDS011;63123;50.906;4.198;2023-02-26T11:40:42;1.02;;;0.77;;
74616;SDS011;63123;50.906;4.198;2023-02-26T11:43:14;1.15;;;0.80;;
74616;SDS011;63123;50.906;4.198;2023-02-26T11:45:43;1.90;;;1.00;;
74616;SDS011;63123;50.906;4.198;2023-02-26T11:48:12;1.55;;;0.88;;
74616;SDS011;63123;50.906;4.198;2023-02-26T11:50:46;1.38;;;0.80;;
74616;SDS011;63123;50.906;4.198;2023-02-26T11:53:17;1.45;;;0.90;;
74616;SDS011;63123;50.906;4.198;2023-02-26T11:55:50;2.10;;;1.20;;
74616;SDS011;63123;50.906;4.198;2023-02-26T11:58:20;0.73;;;0.73;;
74616;SDS011;63123;50.906;4.198;2023-02-26T12:00:48;1.08;;;0.70;;
74616;SDS011;63123;50.906;4.198;2023-02-26T12:03:20;2.13;;;1.25;;
74616;SDS011;63123;50.906;4.198;2023-02-26T12:05:48;1.08;;;0.73;;
74616;SDS011;63123;50.906;4.198;2023-02-26T12:08:19;2.22;;;0.80;;
74616;SDS011;63123;50.906;4.198;2023-02-26T12:10:52;1.85;;;0.82;;
74616;SDS011;63123;50.906;4.198;2023-02-26T12:14:00;1.08;;;0.80;;
74616;SDS011;63123;50.906;4.198;2023-02-26T12:19:23;1.20;;;0.90;;
74616;SDS011;63123;50.906;4.198;2023-02-26T12:36:18;0.85;;;0.65;;
74616;SDS011;63123;50.906;4.198;2023-02-26T12:42:02;2.00;;;1.08;;
74616;SDS011;63123;50.906;4.198;2023-02-26T12:50:02;2.90;;;0.80;;
74616;SDS011;63123;50.906;4.198;2023-02-26T12:55:35;2.42;;;0.70;;
74616;SDS011;63123;50.906;4.198;2023-02-26T13:11:53;0.88;;;0.60;;
74616;SDS011;63123;50.906;4.198;2023-02-26T13:14:35;0.60;;;0.60;;
74616;SDS011;63123;50.906;4.198;2023-02-26T13:17:14;0.88;;;0.63;;
74616;SDS011;63123;50.906;4.198;2023-02-26T13:19:49;1.00;;;0.60;;
74616;SDS011;63123;50.906;4.198;2023-02-26T13:22:26;1.38;;;0.73;;
74616;SDS011;63123;50.906;4.198;2023-02-26T13:27:44;0.95;;;0.80;;
74616;SDS011;63123;50.906;4.198;2023-02-26T13:32:51;1.25;;;0.75;;
74616;SDS011;63123;50.906;4.198;2023-02-26T13:35:33;0.80;;;0.60;;
74616;SDS011;63123;50.906;4.198;2023-02-26T13:41:57;1.95;;;0.75;;
74616;SDS011;63123;50.906;4.198;2023-02-26T13:44:11;0.98;;;0.80;;
74616;SDS011;63123;50.906;4.198;2023-02-26T13:50:08;1.20;;;0.60;;
74616;SDS011;63123;50.906;4.198;2023-02-26T13:53:41;1.80;;;0.70;;
74616;SDS011;63123;50.906;4.198;2023-02-26T13:55:53;1.73;;;0.80;;
74616;SDS011;63123;50.906;4.198;2023-02-26T13:58:33;1.45;;;0.88;;
74616;SDS011;63123;50.906;4.198;2023-02-26T14:01:17;2.03;;;0.90;;
74616;SDS011;63123;50.906;4.198;2023-02-26T14:03:51;1.75;;;0.63;;
74616;SDS011;63123;50.906;4.198;2023-02-26T14:06:39;0.88;;;0.70;;
74616;SDS011;63123;50.906;4.198;2023-02-26T14:09:44;1.35;;;0.60;;
74616;SDS011;63123;50.906;4.198;2023-02-26T14:14:42;0.95;;;0.93;;
74616;SDS011;63123;50.906;4.198;2023-02-26T14:22:40;1.15;;;0.70;;
74616;SDS011;63123;50.906;4.198;2023-02-26T14:28:15;1.75;;;0.73;;
74616;SDS011;63123;50.906;4.198;2023-02-26T14:30:50;0.70;;;0.63;;
74616;SDS011;63123;50.906;4.198;2023-02-26T14:33:26;1.13;;;0.52;;
74616;SDS011;63123;50.906;4.198;2023-02-26T14:35:54;1.15;;;0.70;;
74616;SDS011;63123;50.906;4.198;2023-02-26T14:38:22;2.22;;;0.70;;
74616;SDS011;63123;50.906;4.198;2023-02-26T14:40:55;3.70;;;0.80;;
74616;SDS011;63123;50.906;4.198;2023-02-26T14:43:40;2.47;;;0.90;;
74616;SDS011;63123;50.906;4.198;2023-02-26T14:46:27;1.67;;;0.80;;
74616;SDS011;63123;50.906;4.198;2023-02-26T14:48:53;4.60;;;0.85;;
74616;SDS011;63123;50.906;4.198;2023-02-26T14:51:25;4.28;;;0.90;;
74616;SDS011;63123;50.906;4.198;2023-02-26T14:56:53;2.65;;;1.08;;
74616;SDS011;63123;50.906;4.198;2023-02-26T15:03:00;2.30;;;0.80;;
74616;SDS011;63123;50.906;4.198;2023-02-26T15:08:33;2.83;;;1.10;;
74616;SDS011;63123;50.906;4.198;2023-02-26T15:11:29;1.52;;;0.73;;
74616;SDS011;63123;50.906;4.198;2023-02-26T15:17:08;53.53;;;12.13;;
74616;SDS011;63123;50.906;4.198;2023-02-26T15:24:40;36.30;;;10.68;;
74616;SDS011;63123;50.906;4.198;2023-02-26T15:27:06;22.92;;;7.63;;
74616;SDS011;63123;50.906;4.198;2023-02-26T15:29:37;25.42;;;7.80;;
74616;SDS011;63123;50.906;4.198;2023-02-26T15:32:13;16.30;;;5.35;;
74616;SDS011;63123;50.906;4.198;2023-02-26T15:34:54;13.82;;;4.47;;
74616;SDS011;63123;50.906;4.198;2023-02-26T15:37:40;12.18;;;3.80;;
74616;SDS011;63123;50.906;4.198;2023-02-26T15:40:06;10.05;;;3.70;;
74616;SDS011;63123;50.906;4.198;2023-02-26T15:42:39;10.93;;;3.33;;
74616;SDS011;63123;50.906;4.198;2023-02-26T15:45:13;8.40;;;2.75;;
74616;SDS011;63123;50.906;4.198;2023-02-26T15:47:48;9.90;;;2.92;;
74616;SDS011;63123;50.906;4.198;2023-02-26T15:50:18;7.35;;;2.13;;
74616;SDS011;63123;50.906;4.198;2023-02-26T15:52:47;8.85;;;2.70;;
74616;SDS011;63123;50.906;4.198;2023-02-26T15:55:18;10.85;;;3.65;;
74616;SDS011;63123;50.906;4.198;2023-02-26T15:57:43;8.77;;;2.65;;
74616;SDS011;63123;50.906;4.198;2023-02-26T16:00:12;10.10;;;3.65;;
74616;SDS011;63123;50.906;4.198;2023-02-26T16:02:42;7.88;;;2.70;;
74616;SDS011;63123;50.906;4.198;2023-02-26T16:05:10;8.77;;;2.50;;
74616;SDS011;63123;50.906;4.198;2023-02-26T16:07:38;5.63;;;3.03;;
74616;SDS011;63123;50.906;4.198;2023-02-26T16:10:06;7.93;;;2.90;;
74616;SDS011;63123;50.906;4.198;2023-02-26T16:12:40;5.03;;;1.95;;
74616;SDS011;63123;50.906;4.198;2023-02-26T16:15:49;6.72;;;2.42;;
74616;SDS011;63123;50.906;4.198;2023-02-26T16:17:58;7.20;;;2.80;;
74616;SDS011;63123;50.906;4.198;2023-02-26T16:20:27;6.20;;;2.08;;
74616;SDS011;63123;50.906;4.198;2023-02-26T16:23:03;6.05;;;1.92;;
74616;SDS011;63123;50.906;4.198;2023-02-26T16:25:36;3.95;;;2.22;;
74616;SDS011;63123;50.906;4.198;2023-02-26T16:28:14;6.40;;;2.35;;
74616;SDS011;63123;50.906;4.198;2023-02-26T16:30:44;5.47;;;2.20;;
74616;SDS011;63123;50.906;4.198;2023-02-26T16:33:13;5.82;;;2.00;;
74616;SDS011;63123;50.906;4.198;2023-02-26T16:35:45;3.97;;;2.17;;
74616;SDS011;63123;50.906;4.198;2023-02-26T16:38:20;4.70;;;2.30;;
74616;SDS011;63123;50.906;4.198;2023-02-26T16:40:56;6.28;;;2.63;;
74616;SDS011;63123;50.906;4.198;2023-02-26T16:43:46;4.45;;;1.80;;
74616;SDS011;63123;50.906;4.198;2023-02-26T16:46:32;3.55;;;2.13;;
74616;SDS011;63123;50.906;4.198;2023-02-26T16:51:56;5.43;;;1.83;;
74616;SDS011;63123;50.906;4.198;2023-02-26T16:54:23;3.72;;;1.70;;
74616;SDS011;63123;50.906;4.198;2023-02-26T16:57:12;3.83;;;1.83;;
74616;SDS011;63123;50.906;4.198;2023-02-26T16:59:57;5.30;;;1.95;;
74616;SDS011;63123;50.906;4.198;2023-02-26T17:02:26;4.93;;;2.13;;
74616;SDS011;63123;50.906;4.198;2023-02-26T17:04:58;5.40;;;2.05;;
74616;SDS011;63123;50.906;4.198;2023-02-26T17:07:31;4.00;;;1.88;;
74616;SDS011;63123;50.906;4.198;2023-02-26T17:10:03;4.00;;;1.80;;
74616;SDS011;63123;50.906;4.198;2023-02-26T17:12:43;4.47;;;2.55;;
74616;SDS011;63123;50.906;4.198;2023-02-26T17:15:22;3.92;;;2.00;;
74616;SDS011;63123;50.906;4.198;2023-02-26T17:18:02;4.75;;;1.83;;
74616;SDS011;63123;50.906;4.198;2023-02-26T17:20:28;3.58;;;1.85;;
74616;SDS011;63123;50.906;4.198;2023-02-26T17:22:56;3.42;;;1.90;;
74616;SDS011;63123;50.906;4.198;2023-02-26T17:25:23;5.20;;;2.08;;
74616;SDS011;63123;50.906;4.198;2023-02-26T17:27:53;4.70;;;2.33;;
74616;SDS011;63123;50.906;4.198;2023-02-26T17:30:20;3.08;;;1.70;;
74616;SDS011;63123;50.906;4.198;2023-02-26T17:32:48;3.35;;;1.85;;
74616;SDS011;63123;50.906;4.198;2023-02-26T17:35:14;2.72;;;1.52;;
74616;SDS011;63123;50.906;4.198;2023-02-26T17:37:41;5.28;;;1.90;;
74616;SDS011;63123;50.906;4.198;2023-02-26T17:40:16;3.28;;;1.80;;
74616;SDS011;63123;50.906;4.198;2023-02-26T17:42:47;4.25;;;2.35;;
74616;SDS011;63123;50.906;4.198;2023-02-26T17:45:13;2.45;;;2.05;;
74616;SDS011;63123;50.906;4.198;2023-02-26T17:47:40;3.30;;;2.10;;
74616;SDS011;63123;50.906;4.198;2023-02-26T17:50:23;6.18;;;2.80;;